createdAt,value
2023-02-27T00:00:14.210Z,-2.56
2023-02-27T00:01:14.189Z,-2.63
2023-02-27T00:02:14.150Z,-2.58
2023-02-27T00:03:14.129Z,-2.60
2023-02-27T00:04:14.174Z,-2.58
2023-02-27T00:05:14.102Z,-2.58
2023-02-27T00:06:14.079Z,-2.65
2023-02-27T00:07:14.074Z,-2.66
2023-02-27T00:08:14.123Z,-2.71
2023-02-27T00:09:14.057Z,-2.71
2023-02-27T00:10:14.034Z,-2.65
2023-02-27T00:11:14.022Z,-2.66
2023-02-27T00:12:14.019Z,-2.66
2023-02-27T00:13:13.993Z,-2.74
2023-02-27T00:14:13.981Z,-2.70
2023-02-27T00:15:13.975Z,-2.60
2023-02-27T00:16:13.996Z,-2.69
2023-02-27T00:17:13.971Z,-2.66
2023-02-27T00:18:13.934Z,-2.62
2023-02-27T00:19:13.912Z,-2.66
2023-02-27T00:20:13.922Z,-2.65
2023-02-27T00:21:13.886Z,-2.63
2023-02-27T00:22:13.883Z,-2.69
2023-02-27T00:23:13.874Z,-2.69
2023-02-27T00:24:13.864Z,-2.69
2023-02-27T00:25:13.856Z,-2.66
2023-02-27T00:26:13.849Z,-2.62
2023-02-27T00:27:13.820Z,-2.65
2023-02-27T00:28:13.803Z,-2.62
2023-02-27T00:29:13.784Z,-2.65
2023-02-27T00:30:13.776Z,-2.70
2023-02-27T00:31:13.788Z,-2.66
2023-02-27T00:32:13.793Z,-2.69
2023-02-27T00:33:13.766Z,-2.71
2023-02-27T00:34:13.731Z,-2.66
2023-02-27T00:35:13.705Z,-2.74
2023-02-27T00:36:13.704Z,-2.63
2023-02-27T00:37:13.681Z,-2.60
2023-02-27T00:38:13.675Z,-2.70
2023-02-27T00:39:13.652Z,-2.73
2023-02-27T00:40:13.667Z,-2.69
2023-02-27T00:41:13.625Z,-2.73
2023-02-27T00:42:13.629Z,-2.78
2023-02-27T00:43:13.608Z,-2.77
2023-02-27T00:44:13.591Z,-2.77
2023-02-27T00:45:13.586Z,-2.76
2023-02-27T00:46:13.642Z,-2.78
2023-02-27T00:47:13.555Z,-2.80
2023-02-27T00:48:13.536Z,-2.84
2023-02-27T00:49:13.569Z,-2.73
2023-02-27T00:50:13.507Z,-2.81
2023-02-27T00:51:13.505Z,-2.73
2023-02-27T00:52:13.480Z,-2.76
2023-02-27T00:53:13.476Z,-2.83
2023-02-27T00:54:13.456Z,-2.77
2023-02-27T00:55:13.447Z,-2.81
2023-02-27T00:56:13.427Z,-2.78
2023-02-27T00:57:13.417Z,-2.80
2023-02-27T00:58:13.408Z,-2.86
2023-02-27T00:59:13.391Z,-2.80
2023-02-27T01:00:13.374Z,-2.88
2023-02-27T01:01:13.447Z,-2.86
2023-02-27T01:02:13.496Z,-2.78
2023-02-27T01:03:13.345Z,-2.74
2023-02-27T01:04:13.325Z,-2.84
2023-02-27T01:05:13.353Z,-2.81
2023-02-27T01:06:13.298Z,-2.74
2023-02-27T01:07:13.304Z,-2.78
2023-02-27T01:08:13.290Z,-2.80
2023-02-27T01:09:13.265Z,-2.81
2023-02-27T01:10:13.254Z,-2.77
2023-02-27T01:11:13.237Z,-2.78
2023-02-27T01:12:13.235Z,-2.76
2023-02-27T01:13:13.210Z,-2.74
2023-02-27T01:14:13.204Z,-2.76
2023-02-27T01:15:13.195Z,-2.78
2023-02-27T01:16:13.218Z,-2.74
2023-02-27T01:17:13.161Z,-2.76
2023-02-27T01:18:13.159Z,-2.74
2023-02-27T01:19:13.136Z,-2.81
2023-02-27T01:20:13.124Z,-2.81
2023-02-27T01:21:13.152Z,-2.74
2023-02-27T01:22:13.104Z,-2.77
2023-02-27T01:23:13.098Z,-2.76
2023-02-27T01:24:13.070Z,-2.73
2023-02-27T01:25:13.058Z,-2.78
2023-02-27T01:26:13.044Z,-2.74
2023-02-27T01:27:13.037Z,-2.77
2023-02-27T01:28:13.017Z,-2.73
2023-02-27T01:29:13.003Z,-2.71
2023-02-27T01:30:12.998Z,-2.69
2023-02-27T01:31:12.979Z,-2.73
2023-02-27T01:32:13.009Z,-2.71
2023-02-27T01:33:12.969Z,-2.66
2023-02-27T01:34:12.961Z,-2.70
2023-02-27T01:35:12.934Z,-2.65
2023-02-27T01:36:12.922Z,-2.66
2023-02-27T01:37:12.924Z,-2.77
2023-02-27T01:38:12.894Z,-2.73
2023-02-27T01:39:12.874Z,-2.80
2023-02-27T01:40:12.861Z,-2.81
2023-02-27T01:41:12.868Z,-2.80
2023-02-27T01:42:13.246Z,-2.84
2023-02-27T01:43:12.821Z,-2.88
2023-02-27T01:44:12.818Z,-2.83
2023-02-27T01:45:12.795Z,-2.92
2023-02-27T01:46:12.815Z,-2.77
2023-02-27T01:47:12.781Z,-2.91
2023-02-27T01:48:12.765Z,-2.86
2023-02-27T01:49:12.753Z,-2.99
2023-02-27T01:50:12.756Z,-2.88
2023-02-27T01:51:12.717Z,-2.78
2023-02-27T01:52:12.714Z,-2.89
2023-02-27T01:53:12.718Z,-2.78
2023-02-27T01:54:12.687Z,-2.84
2023-02-27T01:55:12.697Z,-2.81
2023-02-27T01:56:12.660Z,-2.92
2023-02-27T01:57:12.646Z,-2.83
2023-02-27T01:58:12.656Z,-2.92
2023-02-27T01:59:12.626Z,-2.89
2023-02-27T02:00:12.606Z,-2.86
2023-02-27T02:01:12.612Z,-2.84
2023-02-27T02:02:12.680Z,-2.77
2023-02-27T02:03:12.568Z,-2.78
2023-02-27T02:04:12.545Z,-2.71
2023-02-27T02:05:12.540Z,-2.80
2023-02-27T02:06:12.518Z,-2.80
2023-02-27T02:07:12.514Z,-2.84
2023-02-27T02:08:12.495Z,-2.86
2023-02-27T02:09:12.513Z,-2.84
2023-02-27T02:10:12.464Z,-2.89
2023-02-27T02:11:12.465Z,-2.91
2023-02-27T02:12:12.451Z,-2.97
2023-02-27T02:13:12.430Z,-2.95
2023-02-27T02:14:12.440Z,-2.97
2023-02-27T02:15:12.410Z,-2.86
2023-02-27T02:16:12.391Z,-2.94
2023-02-27T02:17:12.395Z,-2.98
2023-02-27T02:18:12.378Z,-2.95
2023-02-27T02:19:12.356Z,-2.91
2023-02-27T02:20:12.345Z,-2.81
2023-02-27T02:21:12.331Z,-2.89
2023-02-27T02:22:12.311Z,-2.89
2023-02-27T02:23:12.297Z,-2.88
2023-02-27T02:24:12.292Z,-2.86
2023-02-27T02:25:12.396Z,-2.88
2023-02-27T02:26:12.267Z,-2.89
2023-02-27T02:27:12.246Z,-2.94
2023-02-27T02:28:12.243Z,-2.91
2023-02-27T02:29:12.230Z,-2.89
2023-02-27T02:30:12.216Z,-2.89
2023-02-27T02:31:12.276Z,-2.81
2023-02-27T02:32:12.200Z,-2.91
2023-02-27T02:33:12.174Z,-2.91
2023-02-27T02:34:12.157Z,-2.81
2023-02-27T02:35:12.149Z,-2.83
2023-02-27T02:36:12.134Z,-2.78
2023-02-27T02:37:12.129Z,-2.77
2023-02-27T02:38:12.111Z,-2.76
2023-02-27T02:39:12.096Z,-2.76
2023-02-27T02:40:12.097Z,-2.86
2023-02-27T02:41:12.096Z,-2.95
2023-02-27T02:42:12.054Z,-2.84
2023-02-27T02:43:12.036Z,-2.91
2023-02-27T02:44:12.026Z,-2.94
2023-02-27T02:45:12.027Z,-2.92
2023-02-27T02:46:12.035Z,-2.92
2023-02-27T02:47:11.985Z,-2.94
2023-02-27T02:48:11.987Z,-2.91
2023-02-27T02:49:11.961Z,-2.91
2023-02-27T02:50:11.957Z,-2.94
2023-02-27T02:51:11.945Z,-2.91
2023-02-27T02:52:11.929Z,-2.84
2023-02-27T02:53:11.909Z,-2.92
2023-02-27T02:54:11.893Z,-2.84
2023-02-27T02:55:11.893Z,-2.84
2023-02-27T02:56:11.880Z,-2.91
2023-02-27T02:57:11.897Z,-2.88
2023-02-27T02:58:11.844Z,-2.88
2023-02-27T02:59:11.838Z,-2.91
2023-02-27T03:00:11.818Z,-2.91
2023-02-27T03:01:11.839Z,-2.91
2023-02-27T03:02:11.788Z,-2.81
2023-02-27T03:03:11.778Z,-2.89
2023-02-27T03:04:11.782Z,-2.88
2023-02-27T03:05:11.764Z,-2.89
2023-02-27T03:06:11.747Z,-2.83
2023-02-27T03:07:11.724Z,-2.92
2023-02-27T03:08:11.723Z,-2.91
2023-02-27T03:09:11.705Z,-2.92
2023-02-27T03:10:11.687Z,-2.92
2023-02-27T03:11:11.679Z,-2.92
2023-02-27T03:12:11.681Z,-2.95
2023-02-27T03:13:11.681Z,-2.91
2023-02-27T03:14:11.644Z,-2.88
2023-02-27T03:15:11.630Z,-2.94
2023-02-27T03:16:11.701Z,-2.97
2023-02-27T03:17:11.607Z,-2.92
2023-02-27T03:18:11.583Z,-2.94
2023-02-27T03:19:11.576Z,-2.99
2023-02-27T03:20:11.574Z,-2.98
2023-02-27T03:21:11.543Z,-2.92
2023-02-27T03:22:11.530Z,-3.01
2023-02-27T03:23:11.513Z,-2.98
2023-02-27T03:24:11.510Z,-2.99
2023-02-27T03:25:11.483Z,-2.97
2023-02-27T03:26:11.490Z,-3.01
2023-02-27T03:27:11.469Z,-3.01
2023-02-27T03:28:11.451Z,-3.02
2023-02-27T03:29:11.473Z,-3.04
2023-02-27T03:30:11.435Z,-3.02
2023-02-27T03:31:11.557Z,-3.09
2023-02-27T03:32:11.602Z,-3.02
2023-02-27T03:33:11.392Z,-3.01
2023-02-27T03:34:11.377Z,-3.01
2023-02-27T03:35:11.360Z,-3.02
2023-02-27T03:36:11.355Z,-2.98
2023-02-27T03:37:11.340Z,-2.97
2023-02-27T03:38:11.327Z,-2.99
2023-02-27T03:39:11.304Z,-3.02
2023-02-27T03:40:11.296Z,-3.04
2023-02-27T03:41:11.286Z,-2.99
2023-02-27T03:42:11.269Z,-3.01
2023-02-27T03:43:11.258Z,-3.09
2023-02-27T03:44:11.273Z,-3.06
2023-02-27T03:45:11.256Z,-3.01
2023-02-27T03:46:11.297Z,-2.98
2023-02-27T03:47:11.198Z,-2.98
2023-02-27T03:48:11.195Z,-2.99
2023-02-27T03:49:11.188Z,-2.95
2023-02-27T03:50:11.160Z,-3.09
2023-02-27T03:51:11.153Z,-3.09
2023-02-27T03:52:11.134Z,-3.12
2023-02-27T03:53:11.130Z,-3.12
2023-02-27T03:54:11.116Z,-3.13
2023-02-27T03:55:11.101Z,-3.15
2023-02-27T03:56:11.095Z,-3.04
2023-02-27T03:57:11.080Z,-3.13
2023-02-27T03:58:11.067Z,-3.17
2023-02-27T03:59:11.055Z,-3.15
2023-02-27T04:00:11.038Z,-3.13
2023-02-27T04:01:11.040Z,-3.13
2023-02-27T04:02:11.075Z,-3.10
2023-02-27T04:03:11.000Z,-3.10
2023-02-27T04:04:10.979Z,-3.16
2023-02-27T04:05:10.975Z,-3.10
2023-02-27T04:06:10.973Z,-3.10
2023-02-27T04:07:10.941Z,-3.10
2023-02-27T04:08:10.936Z,-3.07
2023-02-27T04:09:10.923Z,-2.99
2023-02-27T04:10:10.902Z,-3.01
2023-02-27T04:11:10.890Z,-3.06
2023-02-27T04:12:10.899Z,-2.99
2023-02-27T04:13:10.862Z,-3.01
2023-02-27T04:14:10.851Z,-3.07
2023-02-27T04:15:10.844Z,-3.07
2023-02-27T04:16:10.870Z,-3.04
2023-02-27T04:17:10.850Z,-3.02
2023-02-27T04:18:10.800Z,-3.06
2023-02-27T04:19:10.786Z,-3.12
2023-02-27T04:20:10.788Z,-3.15
2023-02-27T04:21:10.771Z,-3.07
2023-02-27T04:22:10.754Z,-3.16
2023-02-27T04:23:10.731Z,-3.12
2023-02-27T04:24:10.727Z,-3.15
2023-02-27T04:25:10.715Z,-3.15
2023-02-27T04:26:10.708Z,-3.22
2023-02-27T04:27:10.703Z,-3.13
2023-02-27T04:28:10.678Z,-3.17
2023-02-27T04:29:10.667Z,-3.15
2023-02-27T04:30:10.666Z,-3.15
2023-02-27T04:31:10.764Z,-3.13
2023-02-27T04:32:10.738Z,-3.19
2023-02-27T04:33:10.643Z,-3.20
2023-02-27T04:34:10.604Z,-3.23
2023-02-27T04:35:10.594Z,-3.20
2023-02-27T04:36:12.956Z,-3.27
2023-02-27T04:37:10.560Z,-3.15
2023-02-27T04:38:10.553Z,-3.19
2023-02-27T04:39:10.548Z,-3.22
2023-02-27T04:40:10.518Z,-3.25
2023-02-27T04:41:10.518Z,-3.23
2023-02-27T04:42:10.519Z,-3.22
2023-02-27T04:43:10.480Z,-3.25
2023-02-27T04:44:10.476Z,-3.16
2023-02-27T04:45:10.462Z,-3.22
2023-02-27T04:46:10.453Z,-3.20
2023-02-27T04:47:10.429Z,-3.23
2023-02-27T04:48:10.418Z,-3.25
2023-02-27T04:49:10.439Z,-3.23
2023-02-27T04:50:10.398Z,-3.23
2023-02-27T04:51:11.374Z,-3.20
2023-02-27T04:52:10.445Z,-3.19
2023-02-27T04:53:10.362Z,-3.20
2023-02-27T04:54:10.349Z,-3.25
2023-02-27T04:55:10.336Z,-3.27
2023-02-27T04:56:10.313Z,-3.23
2023-02-27T04:57:10.314Z,-3.20
2023-02-27T04:58:10.300Z,-3.20
2023-02-27T04:59:10.295Z,-3.25
2023-02-27T05:00:10.268Z,-3.25
2023-02-27T05:01:10.259Z,-3.27
2023-02-27T05:02:10.412Z,-3.28
2023-02-27T05:03:10.236Z,-3.27
2023-02-27T05:04:10.217Z,-3.28
2023-02-27T05:05:10.218Z,-3.19
2023-02-27T05:06:10.218Z,-3.22
2023-02-27T05:07:10.173Z,-3.30
2023-02-27T05:08:10.185Z,-3.25
2023-02-27T05:09:10.147Z,-3.30
2023-02-27T05:10:10.138Z,-3.22
2023-02-27T05:11:10.126Z,-3.22
2023-02-27T05:12:10.114Z,-3.19
2023-02-27T05:13:10.100Z,-3.19
2023-02-27T05:14:10.085Z,-3.30
2023-02-27T05:15:10.072Z,-3.27
2023-02-27T05:16:10.086Z,-3.25
2023-02-27T05:17:10.059Z,-3.27
2023-02-27T05:18:10.111Z,-3.23
2023-02-27T05:19:10.035Z,-3.23
2023-02-27T05:20:10.000Z,-3.22
2023-02-27T05:21:10.019Z,-3.20
2023-02-27T05:22:09.980Z,-3.17
2023-02-27T05:23:09.968Z,-3.17
2023-02-27T05:24:09.963Z,-3.19
2023-02-27T05:25:09.935Z,-3.15
2023-02-27T05:26:09.929Z,-3.13
2023-02-27T05:27:09.923Z,-3.12
2023-02-27T05:28:09.896Z,-3.16
2023-02-27T05:29:09.894Z,-3.15
2023-02-27T05:30:09.890Z,-3.12
2023-02-27T05:31:09.891Z,-3.10
2023-02-27T05:32:09.928Z,-3.13
2023-02-27T05:33:09.844Z,-3.22
2023-02-27T05:34:09.820Z,-3.19
2023-02-27T05:35:09.816Z,-3.10
2023-02-27T05:36:09.896Z,-3.17
2023-02-27T05:37:09.802Z,-3.13
2023-02-27T05:38:09.766Z,-3.12
2023-02-27T05:39:09.763Z,-3.09
2023-02-27T05:40:09.739Z,-3.13
2023-02-27T05:41:09.733Z,-3.07
2023-02-27T05:42:09.725Z,-3.06
2023-02-27T05:43:09.723Z,-3.10
2023-02-27T05:44:09.715Z,-3.15
2023-02-27T05:45:09.686Z,-3.07
2023-02-27T05:46:09.712Z,-3.13
2023-02-27T05:47:09.648Z,-3.12
2023-02-27T05:48:09.637Z,-3.13
2023-02-27T05:49:09.622Z,-3.12
2023-02-27T05:50:09.624Z,-3.12
2023-02-27T05:51:09.599Z,-3.12
2023-02-27T05:52:09.591Z,-3.10
2023-02-27T05:53:09.607Z,-3.07
2023-02-27T05:54:09.565Z,-3.25
2023-02-27T05:55:09.545Z,-3.20
2023-02-27T05:56:09.549Z,-3.16
2023-02-27T05:57:09.534Z,-3.16
2023-02-27T05:58:09.505Z,-3.20
2023-02-27T05:59:09.508Z,-3.25
2023-02-27T06:00:09.499Z,-3.22
2023-02-27T06:01:09.476Z,-3.12
2023-02-27T06:02:09.529Z,-3.20
2023-02-27T06:03:09.509Z,-3.15
2023-02-27T06:04:09.434Z,-3.16
2023-02-27T06:05:09.426Z,-3.23
2023-02-27T06:06:09.414Z,-3.19
2023-02-27T06:07:09.398Z,-3.25
2023-02-27T06:08:09.387Z,-3.17
2023-02-27T06:09:09.399Z,-3.16
2023-02-27T06:10:09.356Z,-3.22
2023-02-27T06:11:09.346Z,-3.10
2023-02-27T06:12:09.326Z,-3.16
2023-02-27T06:13:09.319Z,-3.17
2023-02-27T06:14:09.296Z,-3.09
2023-02-27T06:15:09.292Z,-3.12
2023-02-27T06:16:09.279Z,-3.09
2023-02-27T06:17:09.265Z,-3.10
2023-02-27T06:18:09.258Z,-3.10
2023-02-27T06:19:09.239Z,-3.06
2023-02-27T06:20:09.227Z,-3.10
2023-02-27T06:21:09.218Z,-3.10
2023-02-27T06:22:09.200Z,-3.10
2023-02-27T06:23:09.190Z,-3.16
2023-02-27T06:24:09.183Z,-3.15
2023-02-27T06:25:09.187Z,-3.12
2023-02-27T06:26:09.146Z,-3.13
2023-02-27T06:27:09.139Z,-3.13
2023-02-27T06:28:09.122Z,-3.12
2023-02-27T06:29:09.106Z,-3.16
2023-02-27T06:30:09.104Z,-3.12
2023-02-27T06:31:09.255Z,-3.20
2023-02-27T06:32:09.093Z,-3.16
2023-02-27T06:33:09.059Z,-3.15
2023-02-27T06:34:09.066Z,-3.15
2023-02-27T06:35:09.027Z,-3.16
2023-02-27T06:36:09.059Z,-3.17
2023-02-27T06:37:09.001Z,-3.19
2023-02-27T06:38:08.989Z,-3.12
2023-02-27T06:39:09.018Z,-3.15
2023-02-27T06:40:08.974Z,-3.13
2023-02-27T06:41:08.978Z,-3.09
2023-02-27T06:42:08.957Z,-3.10
2023-02-27T06:43:08.969Z,-3.07
2023-02-27T06:44:08.931Z,-3.10
2023-02-27T06:45:08.908Z,-3.10
2023-02-27T06:46:08.999Z,-3.09
2023-02-27T06:47:08.876Z,-3.12
2023-02-27T06:48:08.871Z,-3.12
2023-02-27T06:49:08.846Z,-3.06
2023-02-27T06:50:08.848Z,-3.04
2023-02-27T06:51:08.821Z,-2.99
2023-02-27T06:52:08.817Z,-3.06
2023-02-27T06:53:08.803Z,-3.02
2023-02-27T06:54:08.784Z,-2.99
2023-02-27T06:55:08.762Z,-3.06
2023-02-27T06:56:08.758Z,-3.07
2023-02-27T06:57:08.764Z,-3.06
2023-02-27T06:58:08.726Z,-3.07
2023-02-27T06:59:08.713Z,-3.09
2023-02-27T07:00:08.735Z,-3.10
2023-02-27T07:01:08.736Z,-3.04
2023-02-27T07:02:08.682Z,-3.07
2023-02-27T07:03:08.663Z,-3.01
2023-02-27T07:04:08.652Z,-3.02
2023-02-27T07:05:08.691Z,-3.01
2023-02-27T07:06:08.629Z,-3.07
2023-02-27T07:07:35.662Z,-2.99
2023-02-27T07:08:09.621Z,-2.99
2023-02-27T07:09:08.589Z,-3.02
2023-02-27T07:10:08.584Z,-3.06
2023-02-27T07:11:08.563Z,-2.98
2023-02-27T07:12:08.556Z,-2.97
2023-02-27T07:13:08.580Z,-2.94
2023-02-27T07:14:08.529Z,-2.88
2023-02-27T07:15:08.504Z,-2.86
2023-02-27T07:16:08.570Z,-2.91
2023-02-27T07:17:08.493Z,-2.83
2023-02-27T07:18:08.480Z,-2.94
2023-02-27T07:19:08.840Z,-2.95
2023-02-27T07:20:08.461Z,-2.97
2023-02-27T07:21:08.437Z,-2.92
2023-02-27T07:22:08.414Z,-2.94
2023-02-27T07:23:08.412Z,-2.97
2023-02-27T07:24:08.400Z,-2.88
2023-02-27T07:25:08.399Z,-2.88
2023-02-27T07:26:08.372Z,-2.86
2023-02-27T07:27:08.362Z,-2.84
2023-02-27T07:28:08.421Z,-2.84
2023-02-27T07:29:08.349Z,-2.84
2023-02-27T07:30:08.337Z,-2.84
2023-02-27T07:31:08.398Z,-2.78
2023-02-27T07:32:08.311Z,-2.84
2023-02-27T07:33:08.274Z,-2.78
2023-02-27T07:34:08.268Z,-2.84
2023-02-27T07:35:08.247Z,-2.76
2023-02-27T07:36:08.244Z,-2.74
2023-02-27T07:37:08.229Z,-2.78
2023-02-27T07:38:08.212Z,-2.74
2023-02-27T07:39:08.196Z,-2.66
2023-02-27T07:40:08.192Z,-2.65
2023-02-27T07:41:12.098Z,-2.65
2023-02-27T07:42:09.196Z,-2.69
2023-02-27T07:43:08.155Z,-2.70
2023-02-27T07:44:08.149Z,-2.74
2023-02-27T07:45:08.144Z,-2.77
2023-02-27T07:46:08.153Z,-2.78
2023-02-27T07:47:08.110Z,-2.74
2023-02-27T07:48:08.092Z,-2.74
2023-02-27T07:49:08.082Z,-2.65
2023-02-27T07:50:08.074Z,-2.65
2023-02-27T07:51:08.051Z,-2.60
2023-02-27T07:52:08.039Z,-2.58
2023-02-27T07:53:08.130Z,-2.55
2023-02-27T07:54:08.016Z,-2.50
2023-02-27T07:55:08.000Z,-2.47
2023-02-27T07:56:07.982Z,-2.55
2023-02-27T07:57:07.986Z,-2.60
2023-02-27T07:58:07.970Z,-2.63
2023-02-27T07:59:07.952Z,-2.55
2023-02-27T08:00:07.944Z,-2.66
2023-02-27T08:01:07.964Z,-2.59
2023-02-27T08:02:07.919Z,-2.60
2023-02-27T08:03:07.952Z,-2.59
2023-02-27T08:04:07.883Z,-2.55
2023-02-27T08:05:07.875Z,-2.53
2023-02-27T08:06:07.861Z,-2.62
2023-02-27T08:07:07.844Z,-2.65
2023-02-27T08:08:07.833Z,-2.60
2023-02-27T08:09:07.816Z,-2.71
2023-02-27T08:10:07.808Z,-2.60
2023-02-27T08:11:07.789Z,-2.71
2023-02-27T08:12:07.775Z,-2.71
2023-02-27T08:13:07.775Z,-2.70
2023-02-27T08:14:07.757Z,-2.60
2023-02-27T08:15:07.758Z,-2.62
2023-02-27T08:16:07.825Z,-2.60
2023-02-27T08:17:07.743Z,-2.56
2023-02-27T08:18:07.696Z,-2.50
2023-02-27T08:19:07.692Z,-2.58
2023-02-27T08:20:07.685Z,-2.59
2023-02-27T08:21:07.658Z,-2.59
2023-02-27T08:22:07.649Z,-2.69
2023-02-27T08:23:07.654Z,-2.62
2023-02-27T08:24:07.623Z,-2.62
2023-02-27T08:25:07.624Z,-2.56
2023-02-27T08:26:07.596Z,-2.52
2023-02-27T08:27:07.625Z,-2.58
2023-02-27T08:28:07.577Z,-2.70
2023-02-27T08:29:07.560Z,-2.73
2023-02-27T08:30:07.547Z,-2.73
2023-02-27T08:31:07.609Z,-2.71
2023-02-27T08:32:07.538Z,-2.70
2023-02-27T08:33:07.532Z,-2.74
2023-02-27T08:34:10.619Z,-2.73
2023-02-27T08:35:07.500Z,-2.81
2023-02-27T08:36:07.539Z,-2.76
2023-02-27T08:37:07.457Z,-2.80
2023-02-27T08:38:07.443Z,-2.83
2023-02-27T08:39:07.450Z,-2.77
2023-02-27T08:40:07.421Z,-2.84
2023-02-27T08:41:07.407Z,-2.83
2023-02-27T08:42:07.383Z,-2.78
2023-02-27T08:43:07.371Z,-2.83
2023-02-27T08:44:07.376Z,-2.81
2023-02-27T08:45:07.345Z,-2.80
2023-02-27T08:46:07.423Z,-2.83
2023-02-27T08:47:07.319Z,-2.83
2023-02-27T08:48:07.329Z,-2.80
2023-02-27T08:49:07.328Z,-2.83
2023-02-27T08:50:07.293Z,-2.91
2023-02-27T08:51:07.269Z,-2.86
2023-02-27T08:52:07.272Z,-2.84
2023-02-27T08:53:07.249Z,-2.81
2023-02-27T08:54:07.237Z,-2.77
2023-02-27T08:55:07.236Z,-2.73
2023-02-27T08:56:07.225Z,-2.73
2023-02-27T08:57:07.185Z,-2.71
2023-02-27T08:58:07.190Z,-2.71
2023-02-27T08:59:07.188Z,-2.74
2023-02-27T09:00:07.256Z,-2.69
2023-02-27T09:01:07.184Z,-2.76
2023-02-27T09:02:07.128Z,-2.74
2023-02-27T09:03:07.199Z,-2.66
2023-02-27T09:04:07.106Z,-2.63
2023-02-27T09:05:07.125Z,-2.74
2023-02-27T09:06:07.075Z,-2.71
2023-02-27T09:07:07.060Z,-2.71
2023-02-27T09:08:07.082Z,-2.66
2023-02-27T09:09:07.037Z,-2.69
2023-02-27T09:10:07.023Z,-2.65
2023-02-27T09:11:07.020Z,-2.63
2023-02-27T09:12:07.006Z,-2.74
2023-02-27T09:13:06.991Z,-2.65
2023-02-27T09:14:06.979Z,-2.55
2023-02-27T09:15:06.983Z,-2.65
2023-02-27T09:16:06.986Z,-2.59
2023-02-27T09:17:06.938Z,-2.58
2023-02-27T09:18:06.974Z,-2.66
2023-02-27T09:19:06.916Z,-2.63
2023-02-27T09:20:06.902Z,-2.56
2023-02-27T09:21:06.928Z,-2.48
2023-02-27T09:22:06.875Z,-2.50
2023-02-27T09:23:06.863Z,-2.47
2023-02-27T09:24:18.773Z,-2.47
2023-02-27T09:25:07.892Z,-2.41
2023-02-27T09:26:06.820Z,-2.41
2023-02-27T09:27:06.814Z,-2.32
2023-02-27T09:28:06.814Z,-2.38
2023-02-27T09:29:06.790Z,-2.37
2023-02-27T09:30:06.775Z,-2.30
2023-02-27T09:31:06.761Z,-2.32
2023-02-27T09:32:06.927Z,-2.35
2023-02-27T09:33:06.751Z,-2.34
2023-02-27T09:34:06.736Z,-2.28
2023-02-27T09:35:06.709Z,-2.25
2023-02-27T09:36:06.841Z,-2.22
2023-02-27T09:37:06.730Z,-2.23
2023-02-27T09:38:06.661Z,-2.21
2023-02-27T09:39:06.656Z,-2.19
2023-02-27T09:40:06.639Z,-2.10
2023-02-27T09:41:06.633Z,-2.16
2023-02-27T09:42:06.619Z,-2.08
2023-02-27T09:43:06.644Z,-2.16
2023-02-27T09:44:06.596Z,-2.15
2023-02-27T09:45:06.579Z,-2.12
2023-02-27T09:46:06.616Z,-2.16
2023-02-27T09:47:06.549Z,-2.15
2023-02-27T09:48:06.550Z,-2.19
2023-02-27T09:49:06.538Z,-2.28
2023-02-27T09:50:06.525Z,-2.25
2023-02-27T09:51:06.503Z,-2.22
2023-02-27T09:52:06.481Z,-2.13
2023-02-27T09:53:06.505Z,-2.08
2023-02-27T09:54:06.454Z,-2.04
2023-02-27T09:55:06.471Z,-2.05
2023-02-27T09:56:06.445Z,-1.95
2023-02-27T09:57:06.416Z,-2.01
2023-02-27T09:58:06.415Z,-1.95
2023-02-27T09:59:06.392Z,-2.00
2023-02-27T10:00:06.395Z,-2.01
2023-02-27T10:01:06.371Z,-1.87
2023-02-27T10:02:06.441Z,-2.00
2023-02-27T10:03:06.363Z,-2.00
2023-02-27T10:04:06.327Z,-2.01
2023-02-27T10:05:06.311Z,-1.98
2023-02-27T10:06:07.272Z,-1.97
2023-02-27T10:07:06.314Z,-1.90
2023-02-27T10:08:06.298Z,-2.02
2023-02-27T10:09:06.297Z,-1.97
2023-02-27T10:10:06.252Z,-1.94
2023-02-27T10:11:06.252Z,-2.00
2023-02-27T10:12:07.479Z,-1.97
2023-02-27T10:13:06.209Z,-1.95
2023-02-27T10:14:06.211Z,-2.01
2023-02-27T10:15:06.193Z,-1.89
2023-02-27T10:16:06.187Z,-1.90
2023-02-27T10:17:06.275Z,-1.94
2023-02-27T10:18:23.550Z,-1.87
2023-02-27T10:19:07.170Z,-1.97
2023-02-27T10:20:06.128Z,-1.79
2023-02-27T10:21:06.125Z,-1.77
2023-02-27T10:22:06.121Z,-1.69
2023-02-27T10:23:06.097Z,-1.62
2023-02-27T10:24:07.684Z,-1.62
2023-02-27T10:25:10.999Z,-1.72
2023-02-27T10:26:07.086Z,-1.69
2023-02-27T10:27:06.049Z,-1.66
2023-02-27T10:28:06.030Z,-1.62
2023-02-27T10:29:06.017Z,-1.64
2023-02-27T10:30:05.997Z,-1.68
2023-02-27T10:31:06.016Z,-1.62
2023-02-27T10:32:06.007Z,-1.66
2023-02-27T10:33:05.963Z,-1.69
2023-02-27T10:34:05.949Z,-1.74
2023-02-27T10:35:05.938Z,-1.64
2023-02-27T10:36:06.106Z,-1.69
2023-02-27T10:37:05.924Z,-1.68
2023-02-27T10:38:05.898Z,-1.61
2023-02-27T10:39:05.894Z,-1.53
2023-02-27T10:40:05.875Z,-1.62
2023-02-27T10:41:05.879Z,-1.71
2023-02-27T10:42:05.849Z,-1.72
2023-02-27T10:43:06.468Z,-1.61
2023-02-27T10:44:05.825Z,-1.59
2023-02-27T10:45:05.808Z,-1.50
2023-02-27T10:46:05.819Z,-1.48
2023-02-27T10:47:05.783Z,-1.47
2023-02-27T10:48:05.760Z,-1.46
2023-02-27T10:49:05.785Z,-1.43
2023-02-27T10:50:05.755Z,-1.37
2023-02-27T10:51:06.718Z,-1.44
2023-02-27T10:52:05.719Z,-1.43
2023-02-27T10:53:05.707Z,-1.38
2023-02-27T10:54:05.689Z,-1.41
2023-02-27T10:55:05.666Z,-1.33
2023-02-27T10:56:05.652Z,-1.29
2023-02-27T10:57:05.685Z,-1.35
2023-02-27T10:58:05.631Z,-1.43
2023-02-27T10:59:05.626Z,-1.40
2023-02-27T11:00:05.615Z,-1.33
2023-02-27T11:01:05.590Z,-1.33
2023-02-27T11:02:05.577Z,-1.33
2023-02-27T11:03:05.570Z,-1.29
2023-02-27T11:04:05.570Z,-1.29
2023-02-27T11:05:05.544Z,-1.29
2023-02-27T11:06:05.539Z,-1.23
2023-02-27T11:07:05.517Z,-1.14
2023-02-27T11:08:05.509Z,-1.04
2023-02-27T11:09:05.491Z,-1.15
2023-02-27T11:10:05.493Z,-1.12
2023-02-27T11:11:05.466Z,-1.12
2023-02-27T11:12:05.444Z,-1.19
2023-02-27T11:13:05.501Z,-1.20
2023-02-27T11:14:05.426Z,-1.23
2023-02-27T11:15:05.413Z,-1.08
2023-02-27T11:16:05.445Z,-1.12
2023-02-27T11:17:05.382Z,-1.22
2023-02-27T11:18:05.378Z,-1.23
2023-02-27T11:19:05.356Z,-1.20
2023-02-27T11:20:05.355Z,-1.11
2023-02-27T11:21:05.335Z,-1.20
2023-02-27T11:22:05.327Z,-1.19
2023-02-27T11:23:05.319Z,-1.22
2023-02-27T11:24:05.291Z,-1.17
2023-02-27T11:25:05.291Z,-1.22
2023-02-27T11:26:05.294Z,-1.20
2023-02-27T11:27:05.266Z,-1.14
2023-02-27T11:28:05.244Z,-1.11
2023-02-27T11:29:05.275Z,-1.14
2023-02-27T11:30:05.232Z,-1.17
2023-02-27T11:31:05.312Z,-1.22
2023-02-27T11:32:05.320Z,-1.25
2023-02-27T11:33:05.185Z,-1.20
2023-02-27T11:34:05.175Z,-1.27
2023-02-27T11:35:05.170Z,-1.23
2023-02-27T11:36:05.191Z,-1.23
2023-02-27T11:37:05.136Z,-1.19
2023-02-27T11:38:05.111Z,-1.15
2023-02-27T11:39:05.121Z,-1.22
2023-02-27T11:40:05.086Z,-1.17
2023-02-27T11:41:05.076Z,-1.12
2023-02-27T11:42:05.067Z,-1.17
2023-02-27T11:43:05.076Z,-1.20
2023-02-27T11:44:05.043Z,-1.14
2023-02-27T11:45:05.060Z,-1.20
2023-02-27T11:46:42.613Z,-1.15
2023-02-27T11:47:05.036Z,-1.33
2023-02-27T11:48:05.002Z,-1.38
2023-02-27T11:49:04.982Z,-1.40
2023-02-27T11:50:04.974Z,-1.44
2023-02-27T11:51:04.950Z,-1.41
2023-02-27T11:52:04.933Z,-1.44
2023-02-27T11:53:04.924Z,-1.35
2023-02-27T11:54:04.912Z,-1.32
2023-02-27T11:55:04.897Z,-1.35
2023-02-27T11:56:04.882Z,-1.30
2023-02-27T11:57:04.891Z,-1.29
2023-02-27T11:58:04.859Z,-1.30
2023-02-27T11:59:04.840Z,-1.26
2023-02-27T12:00:04.847Z,-1.22
2023-02-27T12:01:04.856Z,-1.17
2023-02-27T12:02:04.800Z,-1.15
2023-02-27T12:03:04.822Z,-1.20
2023-02-27T12:04:04.858Z,-1.12
2023-02-27T12:05:04.871Z,-1.27
2023-02-27T12:06:04.768Z,-1.26
2023-02-27T12:07:04.745Z,-1.37
2023-02-27T12:08:04.726Z,-1.30
2023-02-27T12:09:04.708Z,-1.37
2023-02-27T12:10:04.749Z,-1.37
2023-02-27T12:11:13.633Z,-1.35
2023-02-27T12:12:05.716Z,-1.23
2023-02-27T12:13:04.664Z,-1.27
2023-02-27T12:14:04.652Z,-1.20
2023-02-27T12:15:04.728Z,-1.23
2023-02-27T12:16:04.676Z,-1.30
2023-02-27T12:17:04.641Z,-1.27
2023-02-27T12:18:04.593Z,-1.26
2023-02-27T12:19:04.588Z,-1.23
2023-02-27T12:20:04.568Z,-1.20
2023-02-27T12:21:04.560Z,-1.12
2023-02-27T12:22:04.540Z,-1.09
2023-02-27T12:23:04.538Z,-1.25
2023-02-27T12:24:04.522Z,-1.19
2023-02-27T12:25:04.512Z,-1.12
2023-02-27T12:26:04.502Z,-1.09
2023-02-27T12:27:04.487Z,-1.09
2023-02-27T12:28:04.459Z,-1.08
2023-02-27T12:29:04.454Z,-1.02
2023-02-27T12:30:04.441Z,-1.12
2023-02-27T12:31:04.424Z,-1.02
2023-02-27T12:32:04.513Z,-1.05
2023-02-27T12:33:04.426Z,-1.02
2023-02-27T12:34:04.393Z,-1.05
2023-02-27T12:35:04.365Z,-1.02
2023-02-27T12:36:04.402Z,-1.09
2023-02-27T12:37:04.342Z,-1.23
2023-02-27T12:38:06.954Z,-1.22
2023-02-27T12:39:04.328Z,-1.17
2023-02-27T12:40:04.309Z,-1.14
2023-02-27T12:41:04.307Z,-1.14
2023-02-27T12:42:04.272Z,-1.05
2023-02-27T12:43:04.285Z,-1.01
2023-02-27T12:44:04.248Z,-0.96
2023-02-27T12:45:04.249Z,-1.01
2023-02-27T12:46:04.287Z,-0.96
2023-02-27T12:47:04.205Z,-0.99
2023-02-27T12:48:04.208Z,-0.97
2023-02-27T12:49:04.214Z,-0.91
2023-02-27T12:50:04.177Z,-0.94
2023-02-27T12:51:04.171Z,-0.91
2023-02-27T12:52:04.160Z,-1.01